Time;durP1;ratioP1;P1;durP2;ratioP2;P2;SDS_P1;SDS_P2;PMS_P1;PMS_P2;Temp;Humidity;BMP_temperature;BMP_pressure;BME280_temperature;BME280_humidity;BME280_pressure;Samples;Min_cycle;Max_cycle;Signal;HPM_P1;HPM_P2
2024/01/31 00:03:29;;;;;;;1999.90;999.90;;;;;;;6.70;100.00;103291.66;10361291;28;20054;-69
2024/01/31 00:08:32;;;;;;;1999.90;999.90;;;;;;;6.59;100.00;103287.31;10377878;28;20046;-69
2024/01/31 00:13:34;;;;;;;1999.90;999.90;;;;;;;6.68;100.00;103306.41;10378206;28;20046;-69
2024/01/31 00:18:37;;;;;;;1999.90;999.90;;;;;;;6.64;100.00;103303.81;10360750;28;20100;-69
2024/01/31 00:23:39;;;;;;;1999.90;999.90;;;;;;;6.47;100.00;103294.28;10377893;28;20046;-69
2024/01/31 00:28:42;;;;;;;1999.90;999.90;;;;;;;6.29;100.00;103305.56;10377657;28;20059;-69
2024/01/31 00:33:44;;;;;;;1999.90;999.90;;;;;;;6.46;100.00;103310.78;10359405;28;20129;-69
2024/01/31 00:38:47;;;;;;;1999.90;999.90;;;;;;;6.50;100.00;103319.44;10377368;28;20054;-69
2024/01/31 00:43:50;;;;;;;1999.90;999.90;;;;;;;6.43;100.00;103328.13;10377178;28;20056;-69
2024/01/31 00:48:53;;;;;;;1999.90;999.90;;;;;;;6.54;100.00;103330.72;10376145;28;20056;-69
2024/01/31 00:53:56;;;;;;;1999.90;999.90;;;;;;;6.35;100.00;103340.25;10375931;28;20461;-69
2024/01/31 00:59:00;;;;;;;1999.90;999.90;;;;;;;6.45;100.00;103339.38;10376034;28;20465;-69
2024/01/31 01:04:03;;;;;;;1999.90;999.90;;;;;;;6.10;100.00;103342.81;10342885;28;20556;-69
2024/01/31 01:09:05;;;;;;;1999.90;999.90;;;;;;;6.36;100.00;103340.25;10376357;28;20045;-69
2024/01/31 01:14:08;;;;;;;1999.90;999.90;;;;;;;6.35;100.00;103367.13;10375984;28;20041;-69
2024/01/31 01:19:10;;;;;;;1999.90;999.90;;;;;;;6.15;100.00;103361.88;10358539;28;20056;-69
2024/01/31 01:24:12;;;;;;;1999.90;999.90;;;;;;;6.19;100.00;103373.19;10342454;28;20042;-69
2024/01/31 01:29:15;;;;;;;1999.90;999.90;;;;;;;6.39;100.00;103371.50;10375598;28;20096;-69
2024/01/31 01:34:17;;;;;;;1999.90;999.90;;;;;;;6.28;100.00;103368.84;10375385;28;20052;-69
2024/01/31 01:39:20;;;;;;;1999.90;999.90;;;;;;;6.25;100.00;103358.44;10357306;28;20413;-69
2024/01/31 01:44:22;;;;;;;1999.90;999.90;;;;;;;6.35;100.00;103361.94;10357222;28;20075;-69
2024/01/31 01:49:25;;;;;;;1999.90;999.90;;;;;;;6.56;100.00;103360.25;10357770;28;20061;-69
2024/01/31 01:54:27;;;;;;;1999.90;999.90;;;;;;;6.37;100.00;103351.53;10357122;28;20104;-69
2024/01/31 01:59:30;;;;;;;1999.90;999.90;;;;;;;6.01;100.00;103355.81;10374901;28;20056;-69
2024/01/31 02:04:33;;;;;;;1999.90;999.90;;;;;;;6.46;100.00;103351.56;10381834;28;20045;-69
2024/01/31 02:09:35;;;;;;;1999.90;999.90;;;;;;;6.48;100.00;103345.47;10383124;28;20072;-70
2024/01/31 02:14:38;;;;;;;1999.90;999.90;;;;;;;6.50;100.00;103342.88;10365409;28;20056;-69
2024/01/31 02:19:40;;;;;;;1999.90;999.90;;;;;;;6.33;100.00;103340.25;10382738;28;20129;-69
2024/01/31 02:24:42;;;;;;;1999.90;999.90;;;;;;;6.27;100.00;103330.72;10365048;28;20080;-70
2024/01/31 02:29:45;;;;;;;1999.90;999.90;;;;;;;6.46;100.00;103328.13;10364432;28;20445;-69
2024/01/31 02:34:47;;;;;;;1999.90;999.90;;;;;;;6.45;100.00;103322.03;10382043;28;20130;-70
2024/01/31 02:39:50;;;;;;;1999.90;999.90;;;;;;;6.26;100.00;103328.97;10381983;28;20052;-69
2024/01/31 02:44:52;;;;;;;1999.90;999.90;;;;;;;6.47;100.00;103337.66;10363925;28;20473;-69
2024/01/31 02:49:54;;;;;;;1999.90;999.90;;;;;;;6.14;100.00;103342.81;10380997;28;20512;-70
2024/01/31 02:54:58;;;;;;;1999.90;999.90;;;;;;;6.24;100.00;103345.47;10363152;28;20050;-69
2024/01/31 03:00:01;;;;;;;1999.90;999.90;;;;;;;6.27;100.00;103343.72;10363415;28;20416;-69
2024/01/31 03:05:03;;;;;;;1999.90;999.90;;;;;;;6.28;100.00;103327.22;10380448;28;20543;-69
2024/01/31 03:10:07;;;;;;;1999.90;999.90;;;;;;;6.22;100.00;103334.16;10388182;22;20148;-71
2024/01/31 03:15:10;;;;;;;1999.90;999.90;;;;;;;6.27;100.00;103332.44;10379939;28;20073;-71
2024/01/31 03:20:13;;;;;;;1999.90;999.90;;;;;;;6.22;100.00;103324.63;10347046;28;20056;-71
2024/01/31 03:25:15;;;;;;;1999.90;999.90;;;;;;;6.10;100.00;103316.78;10380301;28;20042;-71
2024/01/31 03:30:18;;;;;;;1999.90;999.90;;;;;;;6.03;100.00;103315.06;10362683;28;20103;-71
2024/01/31 03:35:20;;;;;;;1999.90;999.90;;;;;;;6.26;100.00;103302.94;10362460;28;20046;-71
2024/01/31 03:40:22;;;;;;;1999.90;999.90;;;;;;;6.36;100.00;103296.03;10362451;28;20108;-71
2024/01/31 03:45:26;;;;;;;1999.90;999.90;;;;;;;5.99;100.00;103309.00;10378907;28;20492;-71
2024/01/31 03:50:28;;;;;;;1999.90;999.90;;;;;;;5.91;100.00;103298.53;10378624;28;20499;-71
2024/01/31 03:55:32;;;;;;;1999.90;999.90;;;;;;;6.14;100.00;103308.16;10361764;28;20084;-71
2024/01/31 04:00:35;;;;;;;1999.90;999.90;;;;;;;6.12;100.00;103289.94;10378166;28;20054;-71
2024/01/31 04:05:37;;;;;;;1999.90;999.90;;;;;;;6.04;100.00;103293.41;10378902;28;20046;-71
2024/01/31 04:10:40;;;;;;;1999.90;999.90;;;;;;;6.05;100.00;103292.50;10344367;28;20053;-71
2024/01/31 04:15:42;;;;;;;1999.90;999.90;;;;;;;5.95;100.00;103286.38;10378281;28;20046;-71
2024/01/31 04:20:46;;;;;;;1999.90;999.90;;;;;;;5.91;100.00;103275.13;10377530;28;20390;-71
2024/01/31 04:25:48;;;;;;;1999.90;999.90;;;;;;;6.29;100.00;103278.69;10376751;28;20479;-71
2024/01/31 04:30:51;;;;;;;1999.90;999.90;;;;;;;5.87;100.00;103277.75;10377665;28;20133;-71
2024/01/31 04:35:53;;;;;;;1999.90;999.90;;;;;;;5.68;100.00;103276.81;10377520;28;20071;-71
2024/01/31 04:40:55;;;;;;;1999.90;999.90;;;;;;;6.01;100.00;103278.66;10359400;28;20141;-71
2024/01/31 04:45:58;;;;;;;1999.90;999.90;;;;;;;5.95;100.00;103278.59;10359900;28;20050;-71
2024/01/31 04:51:03;;;;;;;1999.90;999.90;;;;;;;5.72;100.00;103294.16;10376887;28;20073;-71
2024/01/31 04:56:08;;;;;;;1999.90;999.90;;;;;;;5.91;100.00;103276.88;10376809;28;20077;-71
2024/01/31 05:01:10;;;;;;;1999.90;999.90;;;;;;;5.93;100.00;103283.81;10376041;28;20507;-71
2024/01/31 05:06:13;;;;;;;1999.90;999.90;;;;;;;5.87;100.00;103277.75;10375857;28;20488;-71
2024/01/31 05:11:15;;;;;;;1999.90;999.90;;;;;;;5.69;100.00;103279.41;10375439;28;20057;-71
2024/01/31 05:16:18;;;;;;;1999.90;999.90;;;;;;;6.09;100.00;103278.66;10376153;28;20128;-72
2024/01/31 05:21:20;;;;;;;1999.90;999.90;;;;;;;5.84;100.00;103283.78;10357947;28;20057;-71
2024/01/31 05:26:23;;;;;;;1999.90;999.90;;;;;;;5.80;100.00;103287.25;10375784;28;20052;-71
2024/01/31 05:31:25;;;;;;;1999.90;999.90;;;;;;;5.94;100.00;103282.94;10341568;28;20124;-71
2024/01/31 05:36:27;;;;;;;1999.90;999.90;;;;;;;5.98;100.00;103286.44;10374663;28;20133;-71
2024/01/31 05:41:30;;;;;;;1999.90;999.90;;;;;;;5.86;100.00;103291.59;10374733;28;20048;-71
2024/01/31 05:46:32;;;;;;;1999.90;999.90;;;;;;;5.92;100.00;103296.81;10375224;28;20045;-71
2024/01/31 05:51:35;;;;;;;1999.90;999.90;;;;;;;5.64;100.00;103299.31;10357627;28;20105;-71
2024/01/31 05:56:38;;;;;;;1999.90;999.90;;;;;;;5.92;100.00;103287.28;10374992;28;20129;-71
2024/01/31 06:01:40;;;;;;;1999.90;999.90;;;;;;;6.10;100.00;103277.78;10357642;28;20069;-71
2024/01/31 06:06:43;;;;;;;1999.90;999.90;;;;;;;5.98;100.00;103280.38;10374807;28;20050;-71
2024/01/31 06:11:45;;;;;;;1999.90;999.90;;;;;;;5.92;100.00;103287.28;10300048;28;20441;-71
2024/01/31 06:16:48;;;;;;;1999.90;999.90;;;;;;;6.03;100.00;103279.50;10334029;28;20050;-71
2024/01/31 06:21:50;;;;;;;1999.90;999.90;;;;;;;6.01;100.00;103269.97;10333982;28;20058;-71
2024/01/31 06:26:52;;;;;;;1999.90;999.90;;;;;;;6.05;100.00;103253.50;10333900;28;20072;-71
2024/01/31 06:31:59;;;;;;;1999.90;999.90;;;;;;;5.90;100.00;103257.81;10333732;28;20049;-72
2024/01/31 06:37:02;;;;;;;1999.90;999.90;;;;;;;5.91;100.00;103251.72;10333122;28;20054;-71
2024/01/31 06:42:06;;;;;;;1999.90;999.90;;;;;;;6.01;100.00;103241.38;10332780;28;20386;-72
2024/01/31 06:47:09;;;;;;;1999.90;999.90;;;;;;;6.07;100.00;103233.56;10333548;28;20057;-72
2024/01/31 06:52:11;;;;;;;1999.90;999.90;;;;;;;5.82;100.00;103223.13;10340673;28;20059;-72
2024/01/31 06:57:13;;;;;;;1999.90;999.90;;;;;;;5.82;100.00;103230.06;10340300;28;20556;-72
2024/01/31 07:02:16;;;;;;;1999.90;999.90;;;;;;;6.03;100.00;103234.44;10338909;28;20520;-72
2024/01/31 07:07:18;;;;;;;1999.90;999.90;;;;;;;5.93;100.00;103254.31;10339832;28;20050;-72
2024/01/31 07:12:21;;;;;;;1999.90;999.90;;;;;;;6.01;100.00;103275.19;10338270;28;20429;-72
2024/01/31 07:17:23;;;;;;;1999.90;999.90;;;;;;;6.03;100.00;103312.47;10337940;28;20492;-72
2024/01/31 07:22:26;;;;;;;1999.90;999.90;;;;;;;5.97;100.00;103325.44;10339905;28;20060;-72
2024/01/31 07:27:28;;;;;;;1999.90;999.90;;;;;;;6.07;100.00;103320.28;10338586;28;20046;-72
2024/01/31 07:32:31;;;;;;;1999.90;999.90;;;;;;;6.15;100.00;103333.28;10338825;28;20082;-72
2024/01/31 07:37:37;;;;;;;1999.90;999.90;;;;;;;6.00;100.00;103341.06;10337627;28;20058;-72
2024/01/31 07:42:39;;;;;;;1999.90;999.90;;;;;;;6.20;100.00;103343.69;10338122;28;20050;-72
2024/01/31 07:47:42;;;;;;;1999.90;999.90;;;;;;;6.22;100.00;103352.38;10339014;28;20053;-72
2024/01/31 07:52:44;;;;;;;1999.90;999.90;;;;;;;6.11;100.00;103353.22;10336978;28;20050;-72
2024/01/31 07:57:47;;;;;;;1999.90;999.90;;;;;;;6.46;100.00;103357.63;10337878;28;20481;-72
2024/01/31 08:02:49;;;;;;;1999.90;999.90;;;;;;;6.31;100.00;103357.59;10336480;28;20068;-72
2024/01/31 08:07:51;;;;;;;1999.90;999.90;;;;;;;6.38;100.00;103348.06;10337027;28;20054;-72
2024/01/31 08:12:54;;;;;;;1999.90;999.90;;;;;;;6.08;100.00;103358.41;10377533;28;20061;-72
2024/01/31 08:17:56;;;;;;;1999.90;999.90;;;;;;;6.54;100.00;103351.53;10378306;28;20129;-72
2024/01/31 08:22:58;;;;;;;1999.90;999.90;;;;;;;6.39;100.00;103331.56;10377437;28;20064;-72
2024/01/31 08:28:01;;;;;;;1999.90;999.90;;;;;;;6.60;100.00;103330.72;10377939;28;20100;-72
2024/01/31 08:33:03;;;;;;;1999.90;999.90;;;;;;;6.56;100.00;103332.47;10377644;28;20049;-72
2024/01/31 08:38:06;;;;;;;1999.90;999.90;;;;;;;6.44;100.00;103315.13;10359579;28;20054;-72
2024/01/31 08:43:08;;;;;;;1999.90;999.90;;;;;;;6.36;100.00;103322.03;10377329;28;20053;-72
2024/01/31 08:48:11;;;;;;;1999.90;999.90;;;;;;;6.44;100.00;103320.31;10377191;28;20050;-72
2024/01/31 08:53:13;;;;;;;1999.90;999.90;;;;;;;6.60;100.00;103309.91;10359693;28;20096;-72
2024/01/31 08:58:15;;;;;;;1999.90;999.90;;;;;;;6.57;100.00;103302.94;10376796;28;20049;-72
2024/01/31 09:03:18;;;;;;;1999.90;999.90;;;;;;;6.73;100.00;103293.41;10376647;28;20125;-72
2024/01/31 09:08:21;;;;;;;1999.90;999.90;;;;;;;6.59;100.00;103293.44;10358873;28;20081;-72
2024/01/31 09:13:24;;;;;;;1999.90;999.90;;;;;;;6.58;100.00;103289.06;10375487;28;20052;-72
2024/01/31 09:18:26;;;;;;;1999.90;999.90;;;;;;;7.21;100.00;103285.47;10376097;28;20049;-72
2024/01/31 09:23:29;;;;;;;1999.90;999.90;;;;;;;6.93;100.00;103279.50;10375939;28;20077;-72
2024/01/31 09:28:31;;;;;;;1999.90;999.90;;;;;;;7.11;100.00;103258.59;10375762;28;20054;-72
2024/01/31 09:33:33;;;;;;;1999.90;999.90;;;;;;;7.07;100.00;103246.44;10358283;28;20046;-72
2024/01/31 09:38:36;;;;;;;1999.90;999.90;;;;;;;6.74;100.00;103247.41;10374852;28;20053;-72
2024/01/31 09:43:38;;;;;;;1999.90;999.90;;;;;;;7.20;100.00;103253.34;10357282;28;20112;-72
2024/01/31 09:48:41;;;;;;;1999.90;999.90;;;;;;;7.22;100.00;103255.94;10357892;28;20101;-72
2024/01/31 09:53:45;;;;;;;1999.90;999.90;;;;;;;7.02;100.00;103249.03;10357648;28;20052;-72
2024/01/31 09:58:48;;;;;;;1999.90;999.90;;;;;;;7.31;100.00;103231.56;10357576;28;20060;-72
2024/01/31 10:03:51;;;;;;;1999.90;999.90;;;;;;;7.18;100.00;103236.00;10374267;28;20046;-72
2024/01/31 10:08:55;;;;;;;1999.90;999.90;;;;;;;7.23;100.00;103244.66;10374527;28;20060;-72
2024/01/31 10:13:58;;;;;;;1999.90;999.90;;;;;;;7.30;100.00;103245.50;10374661;28;20052;-72
2024/01/31 10:19:00;;;;;;;1999.90;999.90;;;;;;;7.16;100.00;103249.03;10374599;28;20057;-72
2024/01/31 10:24:03;;;;;;;1999.90;999.90;;;;;;;7.27;100.00;103256.78;10378842;28;20093;-72
2024/01/31 10:29:06;;;;;;;1999.90;999.90;;;;;;;7.35;100.00;103254.16;10381895;28;20489;-72
2024/01/31 10:34:13;;;;;;;1999.90;999.90;;;;;;;7.80;100.00;103253.03;10364881;28;20050;-72
2024/01/31 10:39:20;;;;;;;1999.90;999.90;;;;;;;7.24;100.00;103244.63;10365172;28;20081;-72
2024/01/31 10:44:23;;;;;;;1999.90;999.90;;;;;;;7.56;100.00;103255.78;10382022;28;20074;-72
2024/01/31 10:49:26;;;;;;;1999.90;999.90;;;;;;;7.86;100.00;103249.50;10363798;28;20567;-72
2024/01/31 10:54:32;;;;;;;1999.90;999.90;;;;;;;7.72;100.00;103254.81;10363558;28;20481;-72
2024/01/31 10:59:38;;;;;;;1999.90;999.90;;;;;;;7.50;100.00;103246.25;10364172;28;20111;-72
2024/01/31 11:04:43;;;;;;;1999.90;999.90;;;;;;;7.84;100.00;103238.22;10364285;28;20046;-72
2024/01/31 11:09:46;;;;;;;1999.90;999.90;;;;;;;7.39;100.00;103219.38;10362862;28;20547;-72
2024/01/31 11:14:52;;;;;;;1999.90;999.90;;;;;;;7.93;100.00;103201.63;10363323;28;20045;-72
2024/01/31 11:20:02;;;;;;;1999.90;999.90;;;;;;;7.72;100.00;103193.97;10380628;28;20053;-72
2024/01/31 11:25:07;;;;;;;1999.90;999.90;;;;;;;7.88;100.00;103182.53;10379791;28;20124;-72
2024/01/31 11:30:10;;;;;;;1999.90;999.90;;;;;;;8.00;100.00;103168.53;10363000;28;20051;-72
2024/01/31 11:35:13;;;;;;;1999.90;999.90;;;;;;;7.80;100.00;103159.13;10378628;28;20078;-72
2024/01/31 11:40:19;;;;;;;1999.90;999.90;;;;;;;7.74;100.00;103140.06;10379797;28;20049;-72
2024/01/31 11:45:27;;;;;;;1999.90;999.90;;;;;;;8.03;100.00;103121.53;10361855;28;20149;-72
2024/01/31 11:50:30;;;;;;;1999.90;999.90;;;;;;;7.87;100.00;103102.56;10379572;28;20124;-72
2024/01/31 11:55:33;;;;;;;1999.90;999.90;;;;;;;8.29;100.00;103089.13;10379079;28;20050;-72
2024/01/31 12:00:36;;;;;;;1999.90;999.90;;;;;;;7.81;100.00;103079.16;10378408;28;20408;-72
2024/01/31 12:05:39;;;;;;;1999.90;999.90;;;;;;;8.22;99.98;103058.72;10360814;28;20046;-72
2024/01/31 12:10:41;;;;;;;1999.90;999.90;;;;;;;7.62;100.00;103052.38;10378124;28;20054;-72
2024/01/31 12:15:46;;;;;;;1999.90;999.90;;;;;;;8.16;100.00;103059.66;10377871;28;20042;-72
2024/01/31 12:20:58;;;;;;;1999.90;999.90;;;;;;;8.15;99.72;103053.59;10378251;28;20084;-72
2024/01/31 12:26:01;;;;;;;1999.90;999.90;;;;;;;7.73;95.22;103040.13;10378266;28;20054;-72
2024/01/31 12:31:03;;;;;;;1999.90;999.90;;;;;;;7.78;92.00;103029.63;10360470;28;20081;-72
2024/01/31 12:36:06;;;;;;;1999.90;999.90;;;;;;;7.74;93.04;103020.97;10377776;28;20046;-72
2024/01/31 12:41:12;;;;;;;1999.90;999.90;;;;;;;7.65;93.06;103005.44;10360779;28;20116;-72
2024/01/31 12:46:15;;;;;;;1999.90;999.90;;;;;;;7.38;94.32;102999.59;10376420;28;20458;-72
2024/01/31 12:51:17;;;;;;;1999.90;999.90;;;;;;;7.62;94.46;103001.09;10377097;28;20050;-71
2024/01/31 12:56:20;;;;;;;1999.90;999.90;;;;;;;7.49;92.80;103001.22;10376164;28;20483;-71
2024/01/31 13:01:22;;;;;;;1999.90;999.90;;;;;;;7.60;91.68;103012.44;10358873;28;20420;-72
2024/01/31 13:06:25;;;;;;;1999.90;999.90;;;;;;;7.43;92.42;103012.56;10376519;28;20053;-71
2024/01/31 13:11:27;;;;;;;1999.90;999.90;;;;;;;7.51;91.22;103002.94;10358407;28;20085;-72
2024/01/31 13:16:30;;;;;;;1999.90;999.90;;;;;;;7.52;90.86;103001.22;10376034;28;20050;-72
2024/01/31 13:21:49;;;;;;;1999.90;999.90;;;;;;;7.31;86.84;102987.47;10359505;28;20416;-71
2024/01/31 13:26:52;;;;;;;1999.90;999.90;;;;;;;7.22;85.89;102980.59;10375898;28;20104;-71
2024/01/31 13:31:56;;;;;;;1999.90;999.90;;;;;;;7.24;87.07;102978.00;10375566;28;20046;-71
2024/01/31 13:37:00;;;;;;;1999.90;999.90;;;;;;;7.20;85.82;102969.34;10375508;28;20056;-71
2024/01/31 13:42:04;;;;;;;1999.90;999.90;;;;;;;7.29;86.71;102957.09;10358055;28;20078;-71
2024/01/31 13:47:07;;;;;;;1999.90;999.90;;;;;;;7.21;86.35;102949.34;10375251;28;20064;-71
2024/01/31 13:52:09;;;;;;;1999.90;999.90;;;;;;;7.25;86.79;102948.47;10357652;28;20077;-71
2024/01/31 13:57:12;;;;;;;1999.90;999.90;;;;;;;7.19;84.55;102945.91;10373578;28;20504;-71
2024/01/31 14:02:14;;;;;;;1999.90;999.90;;;;;;;7.17;86.48;102929.44;10357415;28;20046;-71
2024/01/31 14:07:16;;;;;;;1999.90;999.90;;;;;;;7.18;86.71;102929.41;10374760;28;20061;-71
2024/01/31 14:12:19;;;;;;;1999.90;999.90;;;;;;;7.30;87.36;102919.75;10373982;28;20054;-71
2024/01/31 14:17:22;;;;;;;1999.90;999.90;;;;;;;7.24;87.03;102908.50;10374604;28;20060;-71
2024/01/31 14:22:25;;;;;;;1999.90;999.90;;;;;;;7.27;85.50;102891.13;10357276;28;20100;-71
2024/01/31 14:27:47;;;;;;;1999.90;999.90;;;;;;;7.21;84.14;102886.81;10374397;28;20061;-72
2024/01/31 14:32:50;;;;;;;1999.90;999.90;;;;;;;7.33;84.40;102893.66;10373788;28;20481;-71
2024/01/31 14:37:52;;;;;;;1999.90;999.90;;;;;;;7.15;82.42;102879.09;10373700;28;20077;-72
2024/01/31 14:42:54;;;;;;;1999.90;999.90;;;;;;;7.20;83.29;102865.13;10373608;28;20565;-72
2024/01/31 14:47:57;;;;;;;1999.90;999.90;;;;;;;7.28;81.15;102845.94;10356062;28;20437;-71
2024/01/31 14:52:59;;;;;;;1999.90;999.90;;;;;;;7.23;83.31;102844.25;10355888;28;20409;-71
2024/01/31 14:58:02;;;;;;;1999.90;999.90;;;;;;;7.51;83.44;102825.69;10356485;28;20049;-71
2024/01/31 15:03:05;;;;;;;1999.90;999.90;;;;;;;7.10;82.77;102841.78;10374033;28;20129;-71
2024/01/31 15:08:07;;;;;;;1999.90;999.90;;;;;;;7.02;80.23;102849.69;10356506;28;20058;-71
2024/01/31 15:13:09;;;;;;;1999.90;999.90;;;;;;;7.04;80.18;102860.94;10380304;28;20066;-71
2024/01/31 15:18:12;;;;;;;1999.90;999.90;;;;;;;7.17;79.97;102852.13;10380118;28;20405;-71
2024/01/31 15:23:14;;;;;;;1999.90;999.90;;;;;;;7.26;77.68;102858.97;10380104;22;20082;-68
2024/01/31 15:28:17;;;;;;;1999.90;999.90;;;;;;;6.98;77.65;102854.06;10322017;28;20081;-68
2024/01/31 15:33:19;;;;;;;1999.90;999.90;;;;;;;6.96;77.89;102827.16;10338970;28;20049;-68
2024/01/31 15:38:22;;;;;;;1999.90;999.90;;;;;;;7.25;80.32;102821.63;10322309;28;20054;-68
2024/01/31 15:43:24;;;;;;;1999.90;999.90;;;;;;;6.84;80.98;102819.44;10322077;28;20046;-68
2024/01/31 15:48:26;;;;;;;1999.90;999.90;;;;;;;6.98;79.99;102814.13;10321207;28;20050;-67
2024/01/31 15:53:29;;;;;;;1999.90;999.90;;;;;;;6.99;81.27;102818.44;10338224;28;20417;-67
2024/01/31 15:58:32;;;;;;;1999.90;999.90;;;;;;;6.99;80.28;102815.84;10338744;28;20189;-67
2024/01/31 16:03:34;;;;;;;1999.90;999.90;;;;;;;6.92;79.49;102819.38;10337874;28;20125;-67
2024/01/31 16:08:37;;;;;;;1999.90;999.90;;;;;;;7.22;79.86;102813.00;10338309;28;20054;-68
2024/01/31 16:13:39;;;;;;;1999.90;999.90;;;;;;;6.91;79.93;102818.53;10338067;28;20058;-68
2024/01/31 16:18:41;;;;;;;1999.90;999.90;;;;;;;6.91;83.02;102804.63;10337300;28;20512;-68
2024/01/31 16:23:44;;;;;;;1999.90;999.90;;;;;;;6.73;80.85;102792.69;10336663;28;20050;-67
2024/01/31 16:28:46;;;;;;;1999.90;999.90;;;;;;;6.70;83.01;102781.38;10337538;28;20046;-67
2024/01/31 16:33:49;;;;;;;1999.90;999.90;;;;;;;6.72;82.22;102770.13;10337232;28;20061;-68
2024/01/31 16:38:52;;;;;;;1999.90;999.90;;;;;;;6.42;83.84;102772.09;10337100;28;20051;-67
2024/01/31 16:43:55;;;;;;;1999.90;999.90;;;;;;;6.72;81.77;102772.72;10319674;28;20050;-67
2024/01/31 16:48:58;;;;;;;1999.90;999.90;;;;;;;6.51;83.61;102766.84;10336065;28;20050;-67
2024/01/31 16:54:01;;;;;;;1999.90;999.90;;;;;;;6.51;82.72;102753.81;10336386;28;20050;-67
2024/01/31 16:59:03;;;;;;;1999.90;999.90;;;;;;;6.63;83.26;102727.66;10336352;28;20087;-67
2024/01/31 17:04:06;;;;;;;1999.90;999.90;;;;;;;6.55;81.78;102718.22;10336113;28;20121;-67
2024/01/31 17:09:08;;;;;;;1999.90;999.90;;;;;;;6.25;82.21;102723.66;10335957;28;20054;-67
2024/01/31 17:14:10;;;;;;;1999.90;999.90;;;;;;;6.46;81.26;102686.19;10335691;28;20046;-67
2024/01/31 17:19:13;;;;;;;1999.90;999.90;;;;;;;6.23;83.62;102669.94;10335645;28;20050;-67
2024/01/31 17:24:15;;;;;;;1999.90;999.90;;;;;;;6.26;82.52;102664.72;10335043;28;20065;-67
2024/01/31 17:29:18;;;;;;;1999.90;999.90;;;;;;;6.34;82.05;102649.91;10334698;28;20481;-67
2024/01/31 17:34:20;;;;;;;1999.90;999.90;;;;;;;6.23;81.61;102644.78;10334996;28;20050;-67
2024/01/31 17:39:23;;;;;;;1999.90;999.90;;;;;;;6.40;81.97;102657.63;10334981;28;20113;-67
2024/01/31 17:44:25;;;;;;;1999.90;999.90;;;;;;;6.23;82.57;102670.81;10334214;28;20397;-67
2024/01/31 17:49:27;;;;;;;1999.90;999.90;;;;;;;6.24;84.22;102682.94;10317482;28;20053;-67
2024/01/31 17:54:30;;;;;;;1999.90;999.90;;;;;;;6.30;82.04;102695.91;10334524;28;20061;-67
2024/01/31 17:59:32;;;;;;;1999.90;999.90;;;;;;;6.27;83.51;102677.72;10334373;28;20050;-67
2024/01/31 18:04:35;;;;;;;1999.90;999.90;;;;;;;6.46;83.33;102698.38;10334230;28;20053;-67
2024/01/31 18:09:38;;;;;;;1999.90;999.90;;;;;;;6.51;84.31;102687.00;10316414;28;20536;-67
2024/01/31 18:14:40;;;;;;;1999.90;999.90;;;;;;;6.92;83.25;102690.03;10334060;28;20046;-67
2024/01/31 18:19:43;;;;;;;1999.90;999.90;;;;;;;6.67;81.87;102671.22;10334204;28;20051;-67
2024/01/31 18:24:45;;;;;;;1999.90;999.90;;;;;;;6.36;84.99;102661.16;10333414;28;20062;-67
2024/01/31 18:29:48;;;;;;;1999.90;999.90;;;;;;;6.42;84.70;102647.22;10333910;28;20054;-67
2024/01/31 18:34:51;;;;;;;1999.90;999.90;;;;;;;6.54;83.11;102638.41;10333102;28;20054;-67
2024/01/31 18:39:53;;;;;;;1999.90;999.90;;;;;;;6.84;83.01;102635.47;10333728;28;20051;-67
2024/01/31 18:44:56;;;;;;;1999.90;999.90;;;;;;;6.79;82.77;102629.47;10337705;28;20050;-67
2024/01/31 18:49:58;;;;;;;1999.90;999.90;;;;;;;6.36;83.10;102603.91;10340654;28;20050;-67
2024/01/31 18:55:00;;;;;;;1999.90;999.90;;;;;;;6.56;84.43;102600.25;10340383;28;20107;-68
2024/01/31 19:00:04;;;;;;;1999.90;999.90;;;;;;;6.47;84.39;102590.78;10340952;28;20129;-67
2024/01/31 19:05:07;;;;;;;1999.90;999.90;;;;;;;6.27;85.97;102588.38;10340233;28;20070;-67
2024/01/31 19:10:10;;;;;;;1999.90;999.90;;;;;;;6.19;86.42;102553.81;10340627;28;20105;-67
2024/01/31 19:15:13;;;;;;;1999.90;999.90;;;;;;;6.06;86.67;102537.47;10322991;28;20046;-67
2024/01/31 19:20:16;;;;;;;1999.90;999.90;;;;;;;5.99;88.49;102541.03;10306378;28;20046;-67
2024/01/31 19:25:18;;;;;;;1999.90;999.90;;;;;;;6.16;86.21;102533.06;10339527;28;20054;-67
2024/01/31 19:30:21;;;;;;;1999.90;999.90;;;;;;;6.37;85.12;102526.72;10339819;28;20054;-67
2024/01/31 19:35:23;;;;;;;1999.90;999.90;;;;;;;6.38;86.10;102524.09;10322530;28;20058;-67
2024/01/31 19:40:25;;;;;;;1999.90;999.90;;;;;;;6.27;86.85;102532.03;10321518;28;20081;-67
2024/01/31 19:45:28;;;;;;;1999.90;999.90;;;;;;;6.34;86.63;102514.63;10338610;28;20469;-67
2024/01/31 19:50:30;;;;;;;1999.90;999.90;;;;;;;6.29;88.56;102498.22;10338997;28;20059;-67
2024/01/31 19:55:33;;;;;;;1999.90;999.90;;;;;;;6.41;86.55;102487.66;10337648;28;20146;-67
2024/01/31 20:00:35;;;;;;;1999.90;999.90;;;;;;;6.48;87.03;102471.06;10321435;28;20129;-67
2024/01/31 20:05:37;;;;;;;1999.90;999.90;;;;;;;6.48;86.99;102491.03;10338529;28;20133;-67
2024/01/31 20:10:40;;;;;;;1999.90;999.90;;;;;;;6.46;87.26;102478.03;10338269;28;20050;-67
2024/01/31 20:15:43;;;;;;;1999.90;999.90;;;;;;;6.62;87.69;102451.78;10337459;28;20042;-67
2024/01/31 20:20:45;;;;;;;1999.90;999.90;;;;;;;6.74;86.69;102442.94;10337261;28;20047;-67
2024/01/31 20:25:49;;;;;;;1999.90;999.90;;;;;;;6.65;87.11;102431.78;10295724;28;20486;-67
2024/01/31 20:30:51;;;;;;;1999.90;999.90;;;;;;;6.88;86.65;102430.59;10296089;28;20055;-67
2024/01/31 20:35:54;;;;;;;1999.90;999.90;;;;;;;6.58;88.18;102429.31;10295423;28;20047;-67
2024/01/31 20:40:57;;;;;;;1999.90;999.90;;;;;;;6.90;86.15;102407.13;10296857;28;20055;-67
2024/01/31 20:45:59;;;;;;;1999.90;999.90;;;;;;;6.84;87.67;102408.06;10278841;28;20050;-67
2024/01/31 20:51:02;;;;;;;1999.90;999.90;;;;;;;6.76;86.92;102402.13;10295305;28;20086;-67
2024/01/31 20:56:05;;;;;;;1999.90;999.90;;;;;;;6.90;87.38;102384.56;10295602;28;20081;-67
2024/01/31 21:01:07;;;;;;;1999.90;999.90;;;;;;;6.75;88.03;102409.09;10296147;28;20058;-67
2024/01/31 21:06:11;;;;;;;1999.90;999.90;;;;;;;6.95;87.09;102384.47;10295674;28;20101;-67
2024/01/31 21:11:14;;;;;;;1999.90;999.90;;;;;;;7.10;87.14;102399.00;10295109;28;20113;-67
2024/01/31 21:16:17;;;;;;;1999.90;999.90;;;;;;;7.00;88.22;102404.34;10295050;28;20058;-67
2024/01/31 21:21:19;;;;;;;1999.90;999.90;;;;;;;7.12;87.07;102416.28;10294302;28;20086;-67
2024/01/31 21:26:22;;;;;;;1999.90;999.90;;;;;;;7.08;87.92;102391.19;10324975;28;20055;-67
2024/01/31 21:31:24;;;;;;;1999.90;999.90;;;;;;;7.08;89.81;102396.41;10335429;28;20054;-67
2024/01/31 21:36:26;;;;;;;1999.90;999.90;;;;;;;7.20;89.90;102404.00;10317150;28;20549;-67
2024/01/31 21:41:29;;;;;;;1999.90;999.90;;;;;;;7.20;90.11;102388.38;10334346;28;20448;-67
2024/01/31 21:46:32;;;;;;;1999.90;999.90;;;;;;;7.15;91.44;102389.34;10334814;28;20074;-67
2024/01/31 21:51:41;;;;;;;1999.90;999.90;;;;;;;7.33;90.41;102385.53;10334677;28;20182;-67
2024/01/31 21:56:43;;;;;;;1999.90;999.90;;;;;;;7.29;90.91;102386.50;10316739;28;20482;-67
2024/01/31 22:01:46;;;;;;;1999.90;999.90;;;;;;;7.34;90.56;102380.28;10317323;28;20097;-67